createdAt,value
2023-02-15T00:00:14.324Z,100.00
2023-02-15T00:03:02.291Z,100.00
2023-02-15T00:05:32.234Z,100.00
2023-02-15T00:08:00.282Z,100.00
2023-02-15T00:10:28.231Z,100.00
2023-02-15T00:12:56.140Z,100.00
2023-02-15T00:15:24.109Z,100.00
2023-02-15T00:17:52.093Z,100.00
2023-02-15T00:20:20.051Z,100.00
2023-02-15T00:22:48.056Z,100.00
2023-02-15T00:25:16.023Z,100.00
2023-02-15T00:27:44.039Z,100.00
2023-02-15T00:30:13.110Z,100.00
2023-02-15T00:32:41.172Z,100.00
2023-02-15T00:35:10.281Z,100.00
2023-02-15T00:37:38.175Z,100.00
2023-02-15T00:40:07.081Z,100.00
2023-02-15T00:42:35.064Z,100.00
2023-02-15T00:45:02.973Z,100.00
2023-02-15T00:47:31.003Z,100.00
2023-02-15T00:49:59.052Z,100.00
2023-02-15T00:52:27.236Z,100.00
2023-02-15T00:54:55.249Z,100.00
2023-02-15T00:57:23.198Z,100.00
2023-02-15T00:59:51.255Z,100.00
2023-02-15T01:02:19.156Z,100.00
2023-02-15T01:04:48.290Z,100.00
2023-02-15T01:07:17.960Z,100.00
2023-02-15T01:09:45.916Z,100.00
2023-02-15T01:12:13.835Z,100.00
2023-02-15T01:14:41.812Z,100.00
2023-02-15T01:17:09.779Z,100.00
2023-02-15T01:19:37.635Z,100.00
2023-02-15T01:22:05.752Z,100.00
2023-02-15T01:24:37.483Z,100.00
2023-02-15T01:27:05.518Z,100.00
2023-02-15T01:29:33.387Z,100.00
2023-02-15T01:32:01.615Z,100.00
2023-02-15T01:34:30.819Z,100.00
2023-02-15T01:36:58.979Z,100.00
2023-02-15T01:39:27.023Z,100.00
2023-02-15T01:41:54.969Z,100.00
2023-02-15T01:44:53.091Z,100.00
2023-02-15T01:47:38.086Z,100.00
2023-02-15T01:50:08.705Z,100.00
2023-02-15T01:52:40.037Z,100.00
2023-02-15T01:55:10.271Z,100.00
2023-02-15T01:57:38.304Z,100.00
2023-02-15T02:00:07.700Z,100.00
2023-02-15T02:02:44.696Z,100.00
2023-02-15T02:05:12.870Z,100.00
2023-02-15T02:07:45.714Z,100.00
2023-02-15T02:10:17.225Z,100.00
2023-02-15T02:12:47.780Z,100.00
2023-02-15T02:15:17.022Z,100.00
2023-02-15T02:18:07.021Z,100.00
2023-02-15T02:20:48.272Z,100.00
2023-02-15T02:23:40.540Z,100.00
2023-02-15T02:26:19.781Z,100.00
2023-02-15T02:29:05.911Z,100.00
2023-02-15T02:31:45.163Z,100.00
2023-02-15T02:34:14.315Z,100.00
2023-02-15T02:36:46.392Z,100.00
2023-02-15T02:39:40.368Z,100.00
2023-02-15T02:42:33.112Z,100.00
2023-02-15T02:45:06.574Z,100.00
2023-02-15T02:47:48.556Z,100.00
2023-02-15T02:50:22.879Z,100.00
2023-02-15T02:52:54.086Z,100.00
2023-02-15T02:55:43.852Z,100.00
2023-02-15T02:58:40.949Z,100.00
2023-02-15T03:01:23.126Z,100.00
2023-02-15T03:03:58.992Z,100.00
2023-02-15T03:06:50.002Z,100.00
2023-02-15T03:09:26.177Z,100.00
2023-02-15T03:11:54.405Z,100.00
2023-02-15T03:14:22.722Z,100.00
2023-02-15T03:16:52.798Z,100.00
2023-02-15T03:19:28.354Z,100.00
2023-02-15T03:22:10.558Z,100.00
2023-02-15T03:25:07.465Z,100.00
2023-02-15T03:27:44.136Z,100.00
2023-02-15T03:30:14.752Z,100.00
2023-02-15T03:32:44.881Z,100.00
2023-02-15T03:35:12.964Z,100.00
2023-02-15T03:38:00.191Z,100.00
2023-02-15T03:40:55.652Z,100.00
2023-02-15T03:43:53.103Z,100.00
2023-02-15T03:46:45.145Z,100.00
2023-02-15T03:49:20.131Z,100.00
2023-02-15T03:51:51.334Z,100.00
2023-02-15T03:54:47.549Z,100.00
2023-02-15T03:57:34.467Z,100.00
2023-02-15T04:00:29.340Z,100.00
2023-02-15T04:03:15.883Z,100.00
2023-02-15T04:05:45.728Z,100.00
2023-02-15T04:08:14.541Z,100.00
2023-02-15T04:10:56.157Z,100.00
2023-02-15T04:13:32.114Z,100.00
2023-02-15T04:16:07.328Z,100.00
2023-02-15T04:18:59.498Z,100.00
2023-02-15T04:21:48.558Z,100.00
2023-02-15T04:24:35.951Z,100.00
2023-02-15T04:27:05.688Z,100.00
2023-02-15T04:29:33.560Z,100.00
2023-02-15T04:32:03.116Z,100.00
2023-02-15T04:34:31.013Z,100.00
2023-02-15T04:36:58.932Z,100.00
2023-02-15T04:39:26.935Z,100.00
2023-02-15T04:41:55.153Z,100.00
2023-02-15T04:44:23.103Z,100.00
2023-02-15T04:46:51.001Z,100.00
2023-02-15T04:49:18.988Z,100.00
2023-02-15T04:51:46.865Z,100.00
2023-02-15T04:54:14.786Z,100.00
2023-02-15T04:56:44.092Z,100.00
2023-02-15T04:59:12.853Z,100.00
2023-02-15T05:01:40.962Z,100.00
2023-02-15T05:04:09.185Z,100.00
2023-02-15T05:06:37.283Z,100.00
2023-02-15T05:09:05.400Z,100.00
2023-02-15T05:11:33.379Z,100.00
2023-02-15T05:14:01.742Z,100.00
2023-02-15T05:16:29.668Z,100.00
2023-02-15T05:18:57.707Z,100.00
2023-02-15T05:21:26.227Z,100.00
2023-02-15T05:23:54.425Z,100.00
2023-02-15T05:26:42.985Z,100.00
2023-02-15T05:29:11.675Z,100.00
2023-02-15T05:31:39.966Z,100.00
2023-02-15T05:34:08.183Z,100.00
2023-02-15T05:36:36.309Z,100.00
2023-02-15T05:39:06.916Z,100.00
2023-02-15T05:41:35.019Z,100.00
2023-02-15T05:44:03.096Z,100.00
2023-02-15T05:46:31.275Z,100.00
2023-02-15T05:48:59.291Z,100.00
2023-02-15T05:51:27.211Z,100.00
2023-02-15T05:53:55.305Z,100.00
2023-02-15T05:56:23.288Z,100.00
2023-02-15T05:58:55.384Z,100.00
2023-02-15T06:01:24.100Z,100.00
2023-02-15T06:03:53.176Z,100.00
2023-02-15T06:06:21.196Z,100.00
2023-02-15T06:08:49.551Z,100.00
2023-02-15T06:11:17.614Z,100.00
2023-02-15T06:13:45.524Z,100.00
2023-02-15T06:16:13.583Z,100.00
2023-02-15T06:18:41.699Z,100.00
2023-02-15T06:21:09.977Z,100.00
2023-02-15T06:23:37.813Z,100.00
2023-02-15T06:26:05.823Z,100.00
2023-02-15T06:28:33.658Z,100.00
2023-02-15T06:31:01.708Z,100.00
2023-02-15T06:33:31.571Z,100.00
2023-02-15T06:35:59.688Z,100.00
2023-02-15T06:38:27.889Z,100.00
2023-02-15T06:40:55.821Z,100.00
2023-02-15T06:43:23.811Z,100.00
2023-02-15T06:45:51.761Z,100.00
2023-02-15T06:48:19.868Z,100.00
2023-02-15T06:50:48.118Z,100.00
2023-02-15T06:53:16.045Z,100.00
2023-02-15T06:55:43.914Z,100.00
2023-02-15T06:58:11.899Z,100.00
2023-02-15T07:00:39.749Z,100.00
2023-02-15T07:03:07.666Z,100.00
2023-02-15T07:05:35.906Z,100.00
2023-02-15T07:08:04.084Z,100.00
2023-02-15T07:10:32.006Z,100.00
2023-02-15T07:13:00.125Z,100.00
2023-02-15T07:15:28.274Z,100.00
2023-02-15T07:18:00.117Z,100.00
2023-02-15T07:20:28.113Z,100.00
2023-02-15T07:22:56.144Z,100.00
2023-02-15T07:25:23.999Z,100.00
2023-02-15T07:27:59.180Z,100.00
2023-02-15T07:30:28.051Z,100.00
2023-02-15T07:33:16.378Z,100.00
2023-02-15T07:35:49.842Z,100.00
2023-02-15T07:38:18.185Z,100.00
2023-02-15T07:40:46.643Z,100.00
2023-02-15T07:43:15.246Z,100.00
2023-02-15T07:45:43.500Z,100.00
2023-02-15T07:48:11.388Z,100.00
2023-02-15T07:50:39.388Z,100.00
2023-02-15T07:53:07.357Z,100.00
2023-02-15T07:55:35.391Z,100.00
2023-02-15T07:58:03.874Z,100.00
2023-02-15T08:00:51.832Z,100.00
2023-02-15T08:03:20.184Z,100.00
2023-02-15T08:05:48.356Z,100.00
2023-02-15T08:08:31.574Z,100.00
2023-02-15T08:11:20.843Z,100.00
2023-02-15T08:13:57.392Z,100.00
2023-02-15T08:16:32.682Z,100.00
2023-02-15T08:19:07.361Z,100.00
2023-02-15T08:21:37.714Z,100.00
2023-02-15T08:24:07.659Z,100.00
2023-02-15T08:26:37.163Z,100.00
2023-02-15T08:29:07.568Z,100.00
2023-02-15T08:31:38.370Z,100.00
2023-02-15T08:34:06.749Z,100.00
2023-02-15T08:36:34.911Z,100.00
2023-02-15T08:39:05.964Z,100.00
2023-02-15T08:41:36.715Z,100.00
2023-02-15T08:44:07.777Z,100.00
2023-02-15T08:46:38.117Z,100.00
2023-02-15T08:49:07.058Z,100.00
2023-02-15T08:51:37.757Z,100.00
2023-02-15T08:54:10.545Z,100.00
2023-02-15T08:56:40.962Z,100.00
2023-02-15T08:59:15.366Z,100.00
2023-02-15T09:01:44.116Z,100.00
2023-02-15T09:04:14.114Z,100.00
2023-02-15T09:06:47.614Z,100.00
2023-02-15T09:09:17.648Z,100.00
2023-02-15T09:11:47.809Z,100.00
2023-02-15T09:14:19.100Z,100.00
2023-02-15T09:16:49.944Z,100.00
2023-02-15T09:19:19.467Z,100.00
2023-02-15T09:21:47.795Z,100.00
2023-02-15T09:24:17.530Z,100.00
2023-02-15T09:26:48.262Z,100.00
2023-02-15T09:29:17.780Z,100.00
2023-02-15T09:31:54.842Z,100.00
2023-02-15T09:34:24.263Z,100.00
2023-02-15T09:36:52.732Z,100.00
2023-02-15T09:39:24.959Z,100.00
2023-02-15T09:42:20.838Z,100.00
2023-02-15T09:45:07.927Z,100.00
2023-02-15T09:48:02.635Z,100.00
2023-02-15T09:50:58.018Z,100.00
2023-02-15T09:53:48.612Z,100.00
2023-02-15T09:56:31.692Z,100.00
2023-02-15T09:59:34.451Z,100.00
2023-02-15T10:02:27.321Z,100.00
2023-02-15T10:04:55.304Z,100.00
2023-02-15T10:08:02.267Z,100.00
2023-02-15T10:11:25.515Z,100.00
2023-02-15T10:14:16.284Z,100.00
2023-02-15T10:16:51.126Z,100.00
2023-02-15T10:19:45.311Z,100.00
2023-02-15T10:22:35.007Z,100.00
2023-02-15T10:25:03.030Z,100.00
2023-02-15T10:27:37.019Z,100.00
2023-02-15T10:30:14.071Z,100.00
2023-02-15T10:32:55.004Z,100.00
2023-02-15T10:35:58.418Z,100.00
2023-02-15T10:38:46.740Z,100.00
2023-02-15T10:41:52.540Z,100.00
2023-02-15T10:44:48.641Z,100.00
2023-02-15T10:47:47.425Z,100.00
2023-02-15T10:50:24.641Z,100.00
2023-02-15T10:52:56.913Z,100.00
2023-02-15T10:55:57.270Z,100.00
2023-02-15T10:59:04.112Z,100.00
2023-02-15T11:01:44.715Z,100.00
2023-02-15T11:04:37.455Z,100.00
2023-02-15T11:07:34.178Z,100.00
2023-02-15T11:10:16.764Z,100.00
2023-02-15T11:12:48.135Z,100.00
2023-02-15T11:15:31.307Z,100.00
2023-02-15T11:18:11.324Z,100.00
2023-02-15T11:20:59.487Z,100.00
2023-02-15T11:23:28.688Z,100.00
2023-02-15T11:26:03.230Z,100.00
2023-02-15T11:28:50.177Z,100.00
2023-02-15T11:31:24.506Z,100.00
2023-02-15T11:34:06.089Z,100.00
2023-02-15T11:36:38.682Z,100.00
2023-02-15T11:39:13.083Z,100.00
2023-02-15T11:41:53.176Z,100.00
2023-02-15T11:44:32.759Z,100.00
2023-02-15T11:47:02.625Z,100.00
2023-02-15T11:49:35.663Z,100.00
2023-02-15T11:52:09.079Z,100.00
2023-02-15T11:54:41.493Z,100.00
2023-02-15T11:57:37.723Z,99.74
2023-02-15T12:00:16.261Z,100.00
2023-02-15T12:02:50.687Z,100.00
2023-02-15T12:05:24.129Z,100.00
2023-02-15T12:08:02.261Z,100.00
2023-02-15T12:10:35.728Z,100.00
2023-02-15T12:13:18.243Z,100.00
2023-02-15T12:15:50.248Z,100.00
2023-02-15T12:18:45.529Z,100.00
2023-02-15T12:21:17.548Z,100.00
2023-02-15T12:23:52.133Z,100.00
2023-02-15T12:26:32.805Z,100.00
2023-02-15T12:29:08.218Z,99.46
2023-02-15T12:31:42.942Z,99.16
2023-02-15T12:34:23.226Z,100.00
2023-02-15T12:36:59.078Z,100.00
2023-02-15T12:39:28.700Z,99.93
2023-02-15T12:41:56.590Z,99.34
2023-02-15T12:44:35.187Z,99.86
2023-02-15T12:47:17.318Z,99.90
2023-02-15T12:49:48.090Z,99.68
2023-02-15T12:52:19.851Z,98.77
2023-02-15T12:54:48.538Z,99.64
2023-02-15T12:57:30.103Z,99.43
2023-02-15T12:59:59.532Z,98.34
2023-02-15T13:02:41.534Z,99.11
2023-02-15T13:05:25.241Z,99.51
2023-02-15T13:07:58.149Z,98.09
2023-02-15T13:10:35.189Z,98.74
2023-02-15T13:13:11.470Z,98.91
2023-02-15T13:15:48.327Z,98.62
2023-02-15T13:18:33.297Z,98.64
2023-02-15T13:21:17.627Z,97.19
2023-02-15T13:23:51.874Z,98.75
2023-02-15T13:26:23.560Z,99.17
2023-02-15T13:28:58.738Z,99.55
2023-02-15T13:31:33.317Z,98.74
2023-02-15T13:34:11.018Z,97.92
2023-02-15T13:36:51.849Z,97.88
2023-02-15T13:39:35.648Z,97.32
2023-02-15T13:42:22.433Z,96.54
2023-02-15T13:45:05.611Z,98.05
2023-02-15T13:47:59.991Z,96.25
2023-02-15T13:50:30.852Z,97.60
2023-02-15T13:53:08.121Z,95.96
2023-02-15T13:55:47.527Z,95.29
2023-02-15T13:58:31.268Z,95.64
2023-02-15T14:01:06.335Z,95.63
2023-02-15T14:03:43.165Z,97.12
2023-02-15T14:06:49.669Z,96.63
2023-02-15T14:09:48.564Z,96.80
2023-02-15T14:12:38.846Z,95.59
2023-02-15T14:15:25.394Z,96.01
2023-02-15T14:18:07.062Z,96.50
2023-02-15T14:21:06.662Z,96.13
2023-02-15T14:23:41.001Z,96.52
2023-02-15T14:26:28.960Z,96.41
2023-02-15T14:29:16.436Z,96.62
2023-02-15T14:31:53.487Z,96.09
2023-02-15T14:34:51.064Z,96.51
2023-02-15T14:37:45.373Z,96.81
2023-02-15T14:40:57.005Z,96.76
2023-02-15T14:43:46.449Z,94.92
2023-02-15T14:46:55.777Z,95.74
2023-02-15T14:49:26.902Z,96.25
2023-02-15T14:51:57.980Z,96.15
2023-02-15T14:54:25.773Z,96.02
2023-02-15T14:57:02.903Z,95.59
2023-02-15T14:59:56.976Z,95.27
2023-02-15T15:02:49.031Z,95.63
2023-02-15T15:05:35.849Z,96.25
2023-02-15T15:08:06.107Z,95.90
2023-02-15T15:10:41.919Z,96.27
2023-02-15T15:13:31.649Z,96.12
2023-02-15T15:16:26.809Z,96.22
2023-02-15T15:18:56.067Z,96.46
2023-02-15T15:21:53.420Z,96.62
2023-02-15T15:24:39.727Z,96.17
2023-02-15T15:27:46.141Z,96.49
2023-02-15T15:30:13.993Z,96.69
2023-02-15T15:32:59.856Z,96.86
2023-02-15T15:35:36.585Z,96.75
2023-02-15T15:38:12.249Z,96.95
2023-02-15T15:40:58.510Z,97.10
2023-02-15T15:43:49.980Z,97.18
2023-02-15T15:46:17.959Z,97.32
2023-02-15T15:48:46.254Z,97.51
2023-02-15T15:51:29.027Z,97.70
2023-02-15T15:53:58.430Z,97.78
2023-02-15T15:56:32.403Z,98.06
2023-02-15T15:59:05.972Z,98.03
2023-02-15T16:01:42.981Z,98.24
2023-02-15T16:04:13.886Z,98.24
2023-02-15T16:06:42.348Z,98.36
2023-02-15T16:09:28.754Z,98.71
2023-02-15T16:12:03.693Z,98.80
2023-02-15T16:14:39.025Z,98.94
2023-02-15T16:17:16.763Z,98.86
2023-02-15T16:19:45.252Z,99.12
2023-02-15T16:22:21.450Z,99.14
2023-02-15T16:25:19.389Z,99.20
2023-02-15T16:27:49.047Z,99.41
2023-02-15T16:30:38.064Z,99.42
2023-02-15T16:33:12.560Z,99.89
2023-02-15T16:35:53.499Z,99.96
2023-02-15T16:38:43.454Z,100.00
2023-02-15T16:41:15.878Z,100.00
2023-02-15T16:43:48.349Z,100.00
2023-02-15T16:46:21.889Z,100.00
2023-02-15T16:48:53.520Z,100.00
2023-02-15T16:51:28.211Z,100.00
2023-02-15T16:54:01.222Z,100.00
2023-02-15T16:56:32.178Z,100.00
2023-02-15T16:59:01.591Z,100.00
2023-02-15T17:01:32.461Z,100.00
2023-02-15T17:04:23.589Z,100.00
2023-02-15T17:07:21.483Z,100.00
2023-02-15T17:09:52.460Z,100.00
2023-02-15T17:12:56.321Z,100.00
2023-02-15T17:15:31.111Z,100.00
2023-02-15T17:18:07.093Z,100.00
2023-02-15T17:20:37.456Z,100.00
2023-02-15T17:23:06.757Z,100.00
2023-02-15T17:25:43.370Z,100.00
2023-02-15T17:28:21.517Z,100.00
2023-02-15T17:30:52.289Z,100.00
2023-02-15T17:33:26.980Z,100.00
2023-02-15T17:36:12.550Z,100.00
2023-02-15T17:38:41.912Z,100.00
2023-02-15T17:41:09.984Z,100.00
2023-02-15T17:43:38.000Z,100.00
2023-02-15T17:46:06.093Z,100.00
2023-02-15T17:48:40.418Z,100.00
2023-02-15T17:51:13.098Z,100.00
2023-02-15T17:53:41.452Z,100.00
2023-02-15T17:56:12.171Z,100.00
2023-02-15T17:58:40.445Z,100.00
2023-02-15T18:01:38.674Z,100.00
2023-02-15T18:04:30.512Z,100.00
2023-02-15T18:07:22.641Z,100.00
2023-02-15T18:10:09.594Z,100.00
2023-02-15T18:12:38.703Z,100.00
2023-02-15T18:15:07.759Z,100.00
2023-02-15T18:17:40.138Z,100.00
2023-02-15T18:20:24.456Z,100.00
2023-02-15T18:22:53.039Z,100.00
2023-02-15T18:25:25.730Z,100.00
2023-02-15T18:27:55.217Z,100.00
2023-02-15T18:30:27.560Z,100.00
2023-02-15T18:32:58.181Z,100.00
2023-02-15T18:35:31.218Z,100.00
2023-02-15T18:38:01.045Z,100.00
2023-02-15T18:40:30.044Z,100.00
2023-02-15T18:42:57.979Z,100.00
2023-02-15T18:45:33.353Z,100.00
2023-02-15T18:48:01.824Z,100.00
2023-02-15T18:50:34.224Z,100.00
2023-02-15T18:53:12.035Z,100.00
2023-02-15T18:55:40.338Z,100.00
2023-02-15T18:58:21.173Z,100.00
2023-02-15T19:00:50.038Z,100.00
2023-02-15T19:03:19.114Z,100.00
2023-02-15T19:05:47.848Z,100.00
2023-02-15T19:08:23.247Z,100.00
2023-02-15T19:10:51.882Z,100.00
2023-02-15T19:13:19.962Z,100.00
2023-02-15T19:15:48.054Z,100.00
2023-02-15T19:18:17.055Z,100.00
2023-02-15T19:20:46.773Z,100.00
2023-02-15T19:23:20.365Z,100.00
2023-02-15T19:25:50.502Z,100.00
2023-02-15T19:28:32.437Z,100.00
2023-02-15T19:31:00.741Z,100.00
2023-02-15T19:33:28.900Z,100.00
2023-02-15T19:35:57.695Z,100.00
2023-02-15T19:38:32.428Z,100.00
2023-02-15T19:41:07.706Z,100.00
2023-02-15T19:43:36.293Z,100.00
2023-02-15T19:46:04.982Z,100.00
2023-02-15T19:48:33.145Z,100.00
2023-02-15T19:51:01.138Z,100.00
2023-02-15T19:53:29.666Z,100.00
2023-02-15T19:55:57.756Z,100.00
2023-02-15T19:58:25.740Z,100.00
2023-02-15T20:00:53.584Z,100.00
2023-02-15T20:03:22.107Z,100.00
2023-02-15T20:05:50.220Z,100.00
2023-02-15T20:08:21.321Z,100.00
2023-02-15T20:10:49.472Z,100.00
2023-02-15T20:13:19.777Z,100.00
2023-02-15T20:15:49.076Z,100.00
2023-02-15T20:18:20.387Z,100.00
2023-02-15T20:20:55.201Z,100.00
2023-02-15T20:23:30.936Z,100.00
2023-02-15T20:26:02.049Z,100.00
2023-02-15T20:28:31.843Z,100.00
2023-02-15T20:31:00.225Z,100.00
2023-02-15T20:33:28.947Z,100.00
2023-02-15T20:35:58.806Z,100.00
2023-02-15T20:38:30.240Z,100.00
2023-02-15T20:41:19.396Z,100.00
2023-02-15T20:43:47.345Z,100.00
2023-02-15T20:46:15.204Z,100.00
2023-02-15T20:48:43.310Z,100.00
2023-02-15T20:51:20.391Z,100.00
2023-02-15T20:53:48.366Z,100.00
2023-02-15T20:56:22.271Z,100.00
2023-02-15T20:58:51.546Z,100.00
2023-02-15T21:01:22.872Z,100.00
2023-02-15T21:03:51.365Z,100.00
2023-02-15T21:06:19.385Z,100.00
2023-02-15T21:08:47.453Z,100.00
2023-02-15T21:11:22.884Z,100.00
2023-02-15T21:13:51.213Z,100.00
2023-02-15T21:16:19.852Z,100.00
2023-02-15T21:18:47.847Z,100.00
2023-02-15T21:21:22.445Z,100.00
2023-02-15T21:23:52.535Z,100.00
2023-02-15T21:26:22.717Z,100.00
2023-02-15T21:28:50.719Z,100.00
2023-02-15T21:31:25.966Z,100.00
2023-02-15T21:33:54.176Z,100.00
2023-02-15T21:36:25.419Z,100.00
2023-02-15T21:38:53.899Z,100.00
2023-02-15T21:41:44.764Z,100.00
2023-02-15T21:44:38.894Z,100.00
2023-02-15T21:47:34.544Z,100.00
2023-02-15T21:50:22.788Z,100.00
2023-02-15T21:52:50.828Z,100.00
2023-02-15T21:55:19.046Z,100.00
2023-02-15T21:57:47.008Z,100.00
2023-02-15T22:00:23.558Z,100.00
2023-02-15T22:02:54.621Z,100.00
2023-02-15T22:05:28.196Z,100.00
2023-02-15T22:07:57.373Z,100.00
2023-02-15T22:10:29.985Z,100.00
2023-02-15T22:13:03.201Z,100.00
2023-02-15T22:15:37.601Z,100.00
2023-02-15T22:18:06.090Z,100.00
2023-02-15T22:20:34.091Z,100.00
2023-02-15T22:23:02.062Z,100.00
2023-02-15T22:25:29.914Z,100.00
2023-02-15T22:28:00.430Z,100.00
2023-02-15T22:30:35.868Z,100.00
2023-02-15T22:33:04.074Z,100.00
2023-02-15T22:35:34.253Z,100.00
2023-02-15T22:38:02.486Z,100.00
2023-02-15T22:40:34.410Z,100.00
2023-02-15T22:43:05.857Z,100.00
2023-02-15T22:45:36.313Z,100.00
2023-02-15T22:48:04.392Z,100.00
2023-02-15T22:50:33.349Z,100.00
2023-02-15T22:53:02.386Z,100.00
2023-02-15T22:55:36.219Z,100.00
2023-02-15T22:58:04.748Z,100.00
2023-02-15T23:00:38.581Z,100.00
2023-02-15T23:03:28.806Z,100.00
2023-02-15T23:05:56.921Z,100.00
2023-02-15T23:08:24.756Z,100.00
2023-02-15T23:10:56.222Z,100.00
2023-02-15T23:13:29.408Z,100.00
2023-02-15T23:16:03.416Z,100.00
2023-02-15T23:18:38.520Z,100.00
2023-02-15T23:21:15.390Z,100.00
2023-02-15T23:23:45.634Z,100.00
2023-02-15T23:26:18.304Z,100.00
2023-02-15T23:28:47.273Z,100.00
2023-02-15T23:31:28.166Z,100.00
2023-02-15T23:33:57.189Z,100.00
2023-02-15T23:36:25.531Z,100.00
2023-02-15T23:38:55.761Z,100.00
2023-02-15T23:41:29.679Z,100.00
2023-02-15T23:44:03.481Z,100.00
2023-02-15T23:46:39.891Z,100.00
2023-02-15T23:49:17.560Z,100.00
2023-02-15T23:51:54.108Z,100.00
2023-02-15T23:54:25.473Z,100.00
2023-02-15T23:56:57.496Z,100.00
2023-02-15T23:59:28.587Z,100.00
